Delta Lindsey — WDF5519 — position and weather

sailwx.info

Track history (hours):
 
Tides and Currents Weather Stations Pressure Air Temp Water Temp Dewpoint Dewpoint Depression Visibility Wind Speed Wind Dir Waves Ship Positions

Delta Lindsey

Owner: Baydelta Navigation, Inc., San Francisco, CA. More information available from US FCC via Universal Licensing System and Coast Guard Vessel Documentation Center.

Last reported at 2017-Nov-19 22:49 UTC. Time now 2017-Nov-20 19:06 UTC.
Position N 47°16' W 122°26'.

MMSI: 233246442.

Date/timePositionNaut miles runAvg speedWind from/ knotsBaromVisibWave heightAir tempDewpointWater temp
2017-Nov-19 22:49N 47°16' W 122°26'1 3.8
2017-Nov-19 22:30N 47°17' W 122°26'1 1.7
2017-Nov-19 22:00N 47°17' W 122°25'1 2.0
2017-Nov-19 21:30N 47°16' W 122°24'0 0.1
2017-Nov-19 18:04N 47°16' W 122°23'0 3.3
2017-Nov-19 17:57N 47°16' W 122°23'2 1.1
2017-Nov-19 16:24N 47°17' W 122°25'1 3.6
2017-Nov-19 16:00N 47°18' W 122°27'611.1
2017-Nov-19 15:30N 47°23' W 122°23'611.5
2017-Nov-19 15:00N 47°28' W 122°24'611.7
2017-Nov-19 14:30N 47°34' W 122°25'3 6.7
2017-Nov-19 14:00N 47°35' W 122°21'0 0.2
2017-Nov-19 13:30N 47°35' W 122°21'1 1.3
2017-Nov-19 13:01N 47°36' W 122°21'1 2.9
2017-Nov-19 12:30N 47°37' W 122°22'2 3.1
2017-Nov-19 12:00N 47°35' W 122°21'1 1.3
2017-Nov-19 11:30N 47°35' W 122°21'0 0.0
2017-Nov-19 10:57N 47°35' W 122°21'0 0.0
2017-Nov-19 10:30N 47°35' W 122°21'0 0.0
2017-Nov-19 10:00N 47°35' W 122°21'0 0.0
2017-Nov-19 09:30N 47°35' W 122°21'0 0.0
2017-Nov-19 09:00N 47°35' W 122°21'0 0.0
2017-Nov-19 08:30N 47°35' W 122°21'0 0.0
2017-Nov-19 07:57N 47°35' W 122°21'0 0.0
2017-Nov-19 07:30N 47°35' W 122°21'0 0.0
2017-Nov-19 07:00N 47°35' W 122°21'0 0.0
2017-Nov-19 06:27N 47°35' W 122°21'0 0.0
2017-Nov-19 06:00N 47°35' W 122°21'0 0.0
2017-Nov-19 05:30N 47°35' W 122°21'2 3.4
2017-Nov-19 05:00N 47°36' W 122°22'510.8
2017-Nov-19 04:30N 47°32' W 122°28'612.4
2017-Nov-19 04:00N 47°26' W 122°31'612.0
2017-Nov-19 03:30N 47°20' W 122°32'510.4
2017-Nov-19 03:00N 47°17' W 122°26'2 4.4
2017-Nov-19 02:30N 47°16' W 122°23'1 0.5
2017-Nov-19 01:25N 47°15' W 122°23'3 6.3
2017-Nov-19 01:00N 47°17' W 122°26'1 1.4
2017-Nov-19 00:30N 47°16' W 122°27'0 0.1
2017-Nov-18 23:58N 47°16' W 122°27'0 0.0
2017-Nov-18 23:30N 47°16' W 122°27'0 0.1
2017-Nov-18 23:00N 47°16' W 122°26'0 0.1
2017-Nov-18 20:09N 47°16' W 122°26'0 0.0
2017-Nov-18 19:45N 47°16' W 122°26'0 0.0
2017-Nov-18 19:15N 47°16' W 122°26'0 0.0
2017-Nov-18 18:45N 47°16' W 122°26'0 0.0
2017-Nov-18 18:27N 47°16' W 122°26'0 0.0
2017-Nov-18 17:51N 47°16' W 122°26'0 0.0
2017-Nov-18 17:13N 47°16' W 122°26'0 0.3
2017-Nov-18 17:00N 47°16' W 122°26'0 0.0
2017-Nov-18 16:30N 47°16' W 122°26'0 0.0
2017-Nov-18 16:00N 47°16' W 122°26'0 0.0
2017-Nov-18 15:30N 47°16' W 122°26'0 0.0
2017-Nov-18 15:00N 47°16' W 122°26'0 0.0
2017-Nov-18 14:30N 47°16' W 122°26'0 0.0
2017-Nov-18 14:00N 47°16' W 122°26'0 0.0
2017-Nov-18 13:30N 47°16' W 122°26'0 0.0
2017-Nov-18 13:00N 47°16' W 122°26'0 0.0
2017-Nov-18 12:30N 47°16' W 122°26'0 0.0
2017-Nov-18 12:00N 47°16' W 122°26'0 0.0
2017-Nov-18 11:30N 47°16' W 122°26'0 0.0
2017-Nov-18 11:00N 47°16' W 122°26'0 0.0
2017-Nov-18 10:29N 47°16' W 122°26'0 0.0
2017-Nov-18 09:56N 47°16' W 122°26'0 0.0
2017-Nov-18 09:30N 47°16' W 122°26'1 2.4
2017-Nov-18 08:57N 47°16' W 122°24'1 1.6
2017-Nov-18 08:30N 47°16' W 122°25'0 0.7
2017-Nov-18 07:54N 47°16' W 122°25'0 0.1
2017-Nov-18 07:27N 47°16' W 122°25'0 0.3
2017-Nov-18 06:59N 47°16' W 122°25'0 0.0
2017-Nov-18 06:29N 47°16' W 122°25'0 0.0
2017-Nov-18 05:59N 47°16' W 122°25'0 0.0
2017-Nov-18 05:29N 47°16' W 122°25'0 0.0
2017-Nov-18 04:56N 47°16' W 122°25'0 0.0
2017-Nov-18 04:17N 47°16' W 122°25'0 0.0
2017-Nov-18 03:57N 47°16' W 122°25'1 2.4
2017-Nov-18 03:28N 47°16' W 122°24'1 0.7
2017-Nov-18 02:43N 47°16' W 122°23'1 2.5
2017-Nov-18 02:30N 47°16' W 122°24'1 2.2
2017-Nov-18 02:00N 47°17' W 122°25'0 0.9
2017-Nov-18 01:29N 47°17' W 122°25'4 8.3
2017-Nov-18 01:01N 47°21' W 122°26'4 8.6
2017-Nov-18 00:31N 47°25' W 122°23'510.7
2017-Nov-18 00:01N 47°30' W 122°26'510.8
2017-Nov-17 23:31N 47°35' W 122°25'3 5.3
2017-Nov-17 23:01N 47°37' W 122°22'0 0.0
2017-Nov-17 22:31N 47°37' W 122°22'1 1.5
2017-Nov-17 22:01N 47°37' W 122°23'1 1.4
2017-Nov-17 21:31N 47°37' W 122°23'0 0.1
2017-Nov-17 21:00N 47°37' W 122°23'0 0.1
2017-Nov-17 20:31N 47°37' W 122°23'0 0.6
2017-Nov-17 20:01N 47°37' W 122°22'3 5.4
2017-Nov-17 19:30N 47°35' W 122°22'0 0.2
2017-Nov-17 19:00N 47°35' W 122°22'0 0.3
2017-Nov-17 18:30N 47°35' W 122°22'1 1.9
2017-Nov-17 18:00N 47°36' W 122°22'1 1.1
2017-Nov-17 17:31N 47°36' W 122°22'0 0.6
2017-Nov-17 17:00N 47°36' W 122°22'1 2.3
2017-Nov-17 16:30N 47°35' W 122°21'1 1.3
2017-Nov-17 15:58N 47°35' W 122°21'0 0.0
2017-Nov-17 15:16N 47°35' W 122°21'0 0.0
2017-Nov-17 14:46N 47°35' W 122°21'0 0.0
2017-Nov-17 14:27N 47°35' W 122°21'0 0.0
2017-Nov-17 14:00N 47°35' W 122°21'0 0.0
2017-Nov-17 13:30N 47°35' W 122°21'1 1.9
2017-Nov-17 13:00N 47°36' W 122°21'0 0.1
2017-Nov-17 12:31N 47°36' W 122°21'3 5.2
2017-Nov-17 12:00N 47°38' W 122°23'0 0.0
2017-Nov-17 11:30N 47°38' W 122°23'0 0.0
2017-Nov-17 11:00N 47°38' W 122°23'0 0.0
2017-Nov-17 10:31N 47°38' W 122°23'0 0.0
2017-Nov-17 10:00N 47°38' W 122°23'0 0.0
2017-Nov-17 09:30N 47°38' W 122°23'0 0.0
2017-Nov-17 09:00N 47°38' W 122°23'0 0.0
2017-Nov-17 08:30N 47°38' W 122°23'0 0.0
2017-Nov-17 08:00N 47°38' W 122°23'0 0.0
2017-Nov-17 07:30N 47°38' W 122°23'0 0.0
2017-Nov-17 07:00N 47°38' W 122°23'0 0.0
2017-Nov-17 06:30N 47°38' W 122°23'0 0.0
2017-Nov-17 05:58N 47°38' W 122°23'0 0.0
2017-Nov-17 05:30N 47°38' W 122°23'0 0.0
2017-Nov-17 05:00N 47°38' W 122°23'0 0.0
2017-Nov-17 04:30N 47°38' W 122°23'0 0.0
2017-Nov-17 04:00N 47°38' W 122°23'0 0.0
2017-Nov-17 03:30N 47°38' W 122°23'0 0.0
2017-Nov-17 03:00N 47°38' W 122°23'0 0.0
2017-Nov-17 02:30N 47°38' W 122°23'0 0.0
2017-Nov-17 02:00N 47°38' W 122°23'0 0.0
2017-Nov-17 01:30N 47°38' W 122°23'0 0.0
2017-Nov-17 01:00N 47°38' W 122°23'0 0.0
2017-Nov-17 00:30N 47°38' W 122°23'0 0.0
2017-Nov-17 00:00N 47°38' W 122°23'0 0.0
2017-Nov-16 23:30N 47°38' W 122°23'0 0.0
2017-Nov-16 23:00N 47°38' W 122°23'0 0.0
2017-Nov-16 22:30N 47°38' W 122°23'0 0.0
2017-Nov-16 22:00N 47°38' W 122°23'0 0.0
2017-Nov-16 21:30N 47°38' W 122°23'0 0.0
2017-Nov-16 21:01N 47°38' W 122°23'0 0.0
2017-Nov-16 20:29N 47°38' W 122°23'0 0.0
2017-Nov-16 19:59N 47°38' W 122°23'0 0.0
2017-Nov-16 19:29N 47°38' W 122°23'0 0.0
2017-Nov-16 18:59N 47°38' W 122°23'0 0.0
2017-Nov-16 18:29N 47°38' W 122°23'0 0.0
2017-Nov-16 17:57N 47°38' W 122°23'0 0.0
2017-Nov-16 17:29N 47°38' W 122°23'0 0.0
2017-Nov-16 16:59N 47°38' W 122°23'0 0.0
2017-Nov-16 16:30N 47°38' W 122°23'0 0.0
2017-Nov-16 16:00N 47°38' W 122°23'0 0.0
2017-Nov-16 15:29N 47°38' W 122°23'0 0.0
2017-Nov-16 14:59N 47°38' W 122°23'0 0.0
2017-Nov-16 14:29N 47°38' W 122°23'0 1.0
2017-Nov-16 14:01N 47°37' W 122°23'1 1.6
2017-Nov-16 13:30N 47°37' W 122°22'2 4.0
2017-Nov-16 13:00N 47°35' W 122°21'0 0.1
2017-Nov-16 12:30N 47°35' W 122°21'3 5.5
2017-Nov-16 12:01N 47°36' W 122°24'510.5
2017-Nov-16 11:30N 47°31' W 122°25'510.9
2017-Nov-16 11:00N 47°26' W 122°23'5 9.3
2017-Nov-16 10:30N 47°21' W 122°24'4 8.6
2017-Nov-16 10:00N 47°17' W 122°26'1 0.5
2017-Nov-16 07:34N 47°16' W 122°24'0 6.4
2017-Nov-16 07:30N 47°17' W 122°25'0 0.9
2017-Nov-16 06:58N 47°16' W 122°25'0 0.0
2017-Nov-16 06:25N 47°16' W 122°25'0 0.1
2017-Nov-16 05:55N 47°16' W 122°25'0 0.0
2017-Nov-16 05:19N 47°16' W 122°25'0 0.0
2017-Nov-16 04:52N 47°16' W 122°25'0 0.0
2017-Nov-16 04:16N 47°16' W 122°25'0 0.0
2017-Nov-16 03:55N 47°16' W 122°25'0 0.0
2017-Nov-16 03:26N 47°16' W 122°25'1 2.5
2017-Nov-16 03:00N 47°16' W 122°27'0 0.2
2017-Nov-16 02:30N 47°16' W 122°27'0 1.0
2017-Nov-16 02:00N 47°16' W 122°26'1 2.0
2017-Nov-16 01:27N 47°16' W 122°24'1 1.8
2017-Nov-16 01:00N 47°17' W 122°25'1 1.6
2017-Nov-16 00:29N 47°18' W 122°26'1 2.0
2017-Nov-16 00:00N 47°17' W 122°26'1 1.8
2017-Nov-15 23:30N 47°16' W 122°26'0 0.0
2017-Nov-15 23:00N 47°16' W 122°26'0 0.0
2017-Nov-15 22:30N 47°16' W 122°26'0 0.0
2017-Nov-15 21:59N 47°16' W 122°26'2 3.7
2017-Nov-15 21:30N 47°18' W 122°26'0 0.2
2017-Nov-15 21:00N 47°18' W 122°26'0 0.1
2017-Nov-15 20:30N 47°18' W 122°26'0 0.2
2017-Nov-15 20:00N 47°18' W 122°26'0 0.2
2017-Nov-15 19:26N 47°18' W 122°26'0 0.1
2017-Nov-15 18:58N 47°18' W 122°26'1 1.6
2017-Nov-15 18:30N 47°18' W 122°27'4 8.5
2017-Nov-15 18:00N 47°22' W 122°24'4 8.8
2017-Nov-15 17:30N 47°26' W 122°24'510.2
2017-Nov-15 17:00N 47°31' W 122°26'5 9.7
2017-Nov-15 16:30N 47°36' W 122°24'3 5.3
2017-Nov-15 16:00N 47°36' W 122°20'0 0.5
2017-Nov-15 15:31N 47°36' W 122°21'1 1.3
2017-Nov-15 15:00N 47°35' W 122°21'1 1.6
2017-Nov-15 14:31N 47°36' W 122°21'1 1.9
2017-Nov-15 14:00N 47°36' W 122°22'1 2.2
2017-Nov-15 13:30N 47°35' W 122°21'0 0.0
2017-Nov-15 13:00N 47°35' W 122°21'0 0.2
2017-Nov-15 12:30N 47°35' W 122°21'0 0.0
2017-Nov-15 12:00N 47°35' W 122°21'3 5.9
2017-Nov-15 11:31N 47°38' W 122°23'0 0.1
2017-Nov-15 11:00N 47°38' W 122°23'0 0.0
2017-Nov-15 10:30N 47°38' W 122°23'0 0.0
2017-Nov-15 10:00N 47°38' W 122°23'0 0.0
2017-Nov-15 09:30N 47°38' W 122°23'0 0.0
2017-Nov-15 09:00N 47°38' W 122°23'0 0.0
2017-Nov-15 08:30N 47°38' W 122°23'0 0.0
2017-Nov-15 08:00N 47°38' W 122°23'0 0.0
2017-Nov-15 07:30N 47°38' W 122°23'0 0.0
2017-Nov-15 07:00N 47°38' W 122°23'0 0.0
2017-Nov-15 06:30N 47°38' W 122°23'0 0.0
2017-Nov-15 05:57N 47°38' W 122°23'0 0.0
2017-Nov-15 05:30N 47°38' W 122°23'0 0.0
2017-Nov-15 05:00N 47°38' W 122°23'0 0.0
2017-Nov-15 04:30N 47°38' W 122°23'0 0.0
2017-Nov-15 04:00N 47°38' W 122°23'0 0.0
2017-Nov-15 03:30N 47°38' W 122°23'0 0.0
2017-Nov-15 03:00N 47°38' W 122°23'0 0.0
2017-Nov-15 02:31N 47°38' W 122°23'0 0.0
2017-Nov-15 02:01N 47°38' W 122°23'0 0.0
2017-Nov-15 01:31N 47°38' W 122°23'0 0.0
2017-Nov-15 01:01N 47°38' W 122°23'0 0.0
2017-Nov-15 00:30N 47°38' W 122°23'0 0.0
2017-Nov-15 00:00N 47°38' W 122°23'0 0.0
2017-Nov-14 23:31N 47°38' W 122°23'0 0.0
2017-Nov-14 23:00N 47°38' W 122°23'0 0.0
2017-Nov-14 22:31N 47°38' W 122°23'0 0.0
2017-Nov-14 22:00N 47°38' W 122°23'0 0.0
2017-Nov-14 21:30N 47°38' W 122°23'0 0.0
2017-Nov-14 21:01N 47°38' W 122°23'0 0.0
2017-Nov-14 20:31N 47°38' W 122°23'0 0.0
2017-Nov-14 20:00N 47°38' W 122°23'0 0.0
2017-Nov-14 19:30N 47°38' W 122°23'3 5.4
2017-Nov-14 19:00N 47°36' W 122°21'0 0.2
2017-Nov-14 18:30N 47°36' W 122°21'2 3.3
2017-Nov-14 18:00N 47°36' W 122°23'1 2.8
2017-Nov-14 17:31N 47°35' W 122°25'4 8.8
2017-Nov-14 17:00N 47°31' W 122°25'612.4
2017-Nov-14 16:30N 47°25' W 122°22'510.5
2017-Nov-14 16:01N 47°20' W 122°25'4 6.6
2017-Nov-14 15:23N 47°16' W 122°25'0 0.6
2017-Nov-14 15:00N 47°16' W 122°25'1 2.7
2017-Nov-14 14:31N 47°17' W 122°27'1 0.3
2017-Nov-14 12:00N 47°18' W 122°26'3 6.6
2017-Nov-14 11:30N 47°21' W 122°25'4 8.1
2017-Nov-14 11:00N 47°25' W 122°23'5 9.6
2017-Nov-14 10:30N 47°29' W 122°24'5 9.6
2017-Nov-14 10:00N 47°34' W 122°26'4 7.6
2017-Nov-14 09:30N 47°36' W 122°21'1 1.8
2017-Nov-14 09:00N 47°35' W 122°21'0 0.1
2017-Nov-14 08:31N 47°35' W 122°21'3 6.3
2017-Nov-14 08:00N 47°38' W 122°23'0 0.1
2017-Nov-14 07:31N 47°38' W 122°23'0 0.0
2017-Nov-14 07:00N 47°38' W 122°23'0 0.0
2017-Nov-14 06:30N 47°38' W 122°23'0 0.0
2017-Nov-14 06:00N 47°38' W 122°23'0 0.1
2017-Nov-14 05:30N 47°38' W 122°23'0 0.1
2017-Nov-14 05:00N 47°38' W 122°23'0 0.0
2017-Nov-14 04:30N 47°38' W 122°23'0 0.0
2017-Nov-14 04:01N 47°38' W 122°23'0 0.0
2017-Nov-14 03:30N 47°38' W 122°23'0 0.0
2017-Nov-14 03:00N 47°38' W 122°23'1 1.9
2017-Nov-14 02:30N 47°37' W 122°23'5 9.9
2017-Nov-14 02:00N 47°32' W 122°25'511.0
2017-Nov-14 01:30N 47°27' W 122°23'5 9.7
2017-Nov-14 01:00N 47°22' W 122°22'510.8
2017-Nov-14 00:30N 47°18' W 122°27'3 5.4
2017-Nov-14 00:00N 47°16' W 122°25'1 2.2
2017-Nov-13 23:30N 47°17' W 122°26'3 5.4
2017-Nov-13 23:00N 47°15' W 122°23'0 0.2
2017-Nov-13 22:27N 47°15' W 122°23'1 2.5
2017-Nov-13 21:59N 47°16' W 122°24'22 1.1
2017-Nov-13 01:59N 47°38' W 122°23'0 0.0
2017-Nov-13 01:28N 47°38' W 122°23'0 0.0
2017-Nov-13 00:58N 47°38' W 122°23'0 0.0
2017-Nov-13 00:29N 47°38' W 122°23'0 0.0
2017-Nov-12 23:59N 47°38' W 122°23'0 0.0
2017-Nov-12 23:28N 47°38' W 122°23'0 0.0
2017-Nov-12 22:58N 47°38' W 122°23'0 0.0
2017-Nov-12 22:28N 47°38' W 122°23'0 0.0
2017-Nov-12 21:58N 47°38' W 122°23'0 0.0
2017-Nov-12 21:29N 47°38' W 122°23'0 0.0
2017-Nov-12 20:58N 47°38' W 122°23'0 0.0
2017-Nov-12 20:28N 47°38' W 122°23'0 0.0
2017-Nov-12 19:59N 47°38' W 122°23'0 0.0
2017-Nov-12 19:29N 47°38' W 122°23'0 0.0
2017-Nov-12 18:59N 47°38' W 122°23'0 0.0
2017-Nov-12 18:29N 47°38' W 122°23'0 0.1
2017-Nov-12 17:59N 47°38' W 122°23'0 0.1
2017-Nov-12 17:30N 47°38' W 122°23'0 0.0
2017-Nov-12 17:00N 47°38' W 122°23'1 1.8
2017-Nov-12 16:30N 47°37' W 122°22'2 4.2
2017-Nov-12 16:00N 47°35' W 122°21'0 0.6
2017-Nov-12 15:30N 47°36' W 122°21'1 1.1
2017-Nov-12 15:00N 47°35' W 122°21'1 2.4
2017-Nov-12 14:30N 47°36' W 122°21'1 2.6
2017-Nov-12 14:00N 47°37' W 122°22'1 1.5
2017-Nov-12 13:31N 47°38' W 122°23'0 0.1
2017-Nov-12 13:00N 47°38' W 122°23'2 3.3
2017-Nov-12 12:31N 47°36' W 122°22'1 3.0
2017-Nov-12 12:00N 47°35' W 122°21'0 0.1
2017-Nov-12 11:31N 47°35' W 122°21'0 0.0
2017-Nov-12 11:01N 47°35' W 122°21'0 0.0
2017-Nov-12 10:30N 47°35' W 122°21'0 0.0
2017-Nov-12 10:01N 47°35' W 122°21'0 0.0
2017-Nov-12 09:31N 47°35' W 122°21'3 5.4
2017-Nov-12 09:01N 47°37' W 122°24'510.2
2017-Nov-12 08:30N 47°41' W 122°28'510.5
2017-Nov-12 08:01N 47°46' W 122°27'510.6
2017-Nov-12 07:30N 47°52' W 122°29'510.3
2017-Nov-12 07:00N 47°56' W 122°33'2710.6
2017-Nov-12 04:25N 48°22' W 122°46'511.4
2017-Nov-12 03:58N 48°27' W 122°45'511.7
2017-Nov-12 03:31N 48°32' W 122°45'611.8
2017-Nov-12 03:01N 48°38' W 122°44'5 1.5
2017-Nov-11 23:50N 48°43' W 122°44'410.7
2017-Nov-11 23:31N 48°40' W 122°41'5 9.8
2017-Nov-11 23:00N 48°37' W 122°35'2 3.2
2017-Nov-11 22:30N 48°37' W 122°33'0 0.3
2017-Nov-11 22:00N 48°37' W 122°33'5 9.9
2017-Nov-11 21:30N 48°32' W 122°34'2 4.1
2017-Nov-11 21:00N 48°31' W 122°37'0 0.0
2017-Nov-11 20:29N 48°31' W 122°37'0 0.0
2017-Nov-11 19:59N 48°31' W 122°37'0 0.0
2017-Nov-11 19:29N 48°31' W 122°37'0 0.0
2017-Nov-11 18:59N 48°31' W 122°37'0 0.0
2017-Nov-11 18:29N 48°31' W 122°37'0 0.0
2017-Nov-11 17:59N 48°31' W 122°37'0 0.0
2017-Nov-11 17:29N 48°31' W 122°37'0 0.0
2017-Nov-11 16:59N 48°31' W 122°37'0 0.0
2017-Nov-11 16:23N 48°31' W 122°37'0 0.0
2017-Nov-11 15:47N 48°31' W 122°37'0 0.0
2017-Nov-11 15:29N 48°31' W 122°37'0 0.0
2017-Nov-11 14:59N 48°31' W 122°37'0 0.0
2017-Nov-11 14:29N 48°31' W 122°37'0 0.0
2017-Nov-11 13:59N 48°31' W 122°37'0 0.0
2017-Nov-11 13:29N 48°31' W 122°37'0 0.0
2017-Nov-11 12:59N 48°31' W 122°37'0 0.0
2017-Nov-11 12:23N 48°31' W 122°37'0 0.0
2017-Nov-11 11:59N 48°31' W 122°37'0 0.0
2017-Nov-11 11:29N 48°31' W 122°37'0 0.0
2017-Nov-11 10:59N 48°31' W 122°37'0 0.0
2017-Nov-11 10:11N 48°31' W 122°37'0 0.0
2017-Nov-11 09:59N 48°31' W 122°37'0 0.0
2017-Nov-11 09:29N 48°31' W 122°37'0 0.0
2017-Nov-11 08:59N 48°31' W 122°37'0 0.0
2017-Nov-11 08:29N 48°31' W 122°37'0 0.0
2017-Nov-11 07:59N 48°31' W 122°37'0 0.0
2017-Nov-11 07:29N 48°31' W 122°37'0 0.0
2017-Nov-11 06:59N 48°31' W 122°37'0 0.0
2017-Nov-11 06:29N 48°31' W 122°37'0 0.0
2017-Nov-11 05:59N 48°31' W 122°37'0 0.0
2017-Nov-11 05:29N 48°31' W 122°37'0 0.0
2017-Nov-11 04:59N 48°31' W 122°37'0 0.0
2017-Nov-11 04:29N 48°31' W 122°37'0 0.0
2017-Nov-11 03:59N 48°31' W 122°37'0 0.0
2017-Nov-11 03:29N 48°31' W 122°37'0 0.0
2017-Nov-11 02:59N 48°31' W 122°37'0 0.0
2017-Nov-11 02:30N 48°31' W 122°37'0 0.0
2017-Nov-11 02:00N 48°31' W 122°37'0 0.0
2017-Nov-11 01:30N 48°31' W 122°37'0 0.0
2017-Nov-11 01:00N 48°31' W 122°37'0 0.0
2017-Nov-11 00:30N 48°31' W 122°37'0 0.0
2017-Nov-11 00:00N 48°31' W 122°37'0 0.0
2017-Nov-10 23:30N 48°31' W 122°37'0 0.0
2017-Nov-10 23:00N 48°31' W 122°37'0 0.0
2017-Nov-10 22:30N 48°31' W 122°37'0 0.0
2017-Nov-10 22:00N 48°31' W 122°37'1 2.8
2017-Nov-10 21:30N 48°31' W 122°35'0 0.1
2017-Nov-10 21:00N 48°31' W 122°35'1 1.2
2017-Nov-10 20:30N 48°31' W 122°35'2 4.9
2017-Nov-10 20:00N 48°34' W 122°35'2 4.1
2017-Nov-10 19:30N 48°35' W 122°36'0 0.1
2017-Nov-10 19:00N 48°35' W 122°36'1 1.0
2017-Nov-10 18:30N 48°35' W 122°36'3 5.5
2017-Nov-10 18:00N 48°33' W 122°34'3 7.0
2017-Nov-10 17:30N 48°31' W 122°39'4 8.7
2017-Nov-10 17:00N 48°28' W 122°44'28 8.2
2017-Nov-10 13:36N 48°01' W 122°37'1 9.2
2017-Nov-10 13:28N 47°60' W 122°36'4 9.1
2017-Nov-10 13:00N 47°57' W 122°31'611.0
2017-Nov-10 12:30N 47°52' W 122°27'612.2
2017-Nov-10 12:00N 47°46' W 122°25'612.3
2017-Nov-10 11:30N 47°40' W 122°27'612.3
2017-Nov-10 11:00N 47°34' W 122°26'611.9
2017-Nov-10 10:30N 47°28' W 122°24'611.7
2017-Nov-10 10:00N 47°22' W 122°22'611.4
2017-Nov-10 09:31N 47°18' W 122°27'4 7.8
2017-Nov-10 09:00N 47°15' W 122°23'0 0.1
2017-Nov-10 08:30N 47°15' W 122°23'1 1.1
2017-Nov-10 08:00N 47°16' W 122°23'1 2.6
2017-Nov-10 07:30N 47°17' W 122°25'2 3.6
2017-Nov-10 07:00N 47°18' W 122°27'0 0.2
2017-Nov-10 04:12N 47°18' W 122°26'0 0.0
2017-Nov-10 03:57N 47°18' W 122°26'0 0.0
2017-Nov-10 03:30N 47°18' W 122°26'1 2.7
2017-Nov-10 03:01N 47°17' W 122°25'0 0.2
2017-Nov-10 02:30N 47°17' W 122°24'0 0.1
2017-Nov-10 02:00N 47°17' W 122°25'1 2.0
2017-Nov-10 01:30N 47°17' W 122°26'1 1.9
2017-Nov-10 00:59N 47°16' W 122°26'0 0.0
2017-Nov-10 00:30N 47°16' W 122°26'0 0.0
2017-Nov-09 23:59N 47°16' W 122°26'0 0.0
2017-Nov-09 23:30N 47°16' W 122°26'0 0.0
2017-Nov-09 23:00N 47°16' W 122°26'  
Track history (hours):
 
Tides and Currents Weather Stations Pressure Air Temp Water Temp Dewpoint Dewpoint Depression Visibility Wind Speed Wind Dir Waves Ship Positions

Delta Lindsey

Owner: Baydelta Navigation, Inc., San Francisco, CA. More information available from US FCC via Universal Licensing System and Coast Guard Vessel Documentation Center.

Last reported at 2017-Nov-19 22:49 UTC. Time now 2017-Nov-20 19:06 UTC.
Position N 47°16' W 122°26'.

MMSI: 233246442.

Date/timePositionNaut miles runAvg speedWind from/ knotsBaromVisibWave heightAir tempDewpointWater temp
2017-Nov-19 22:49N 47°16' W 122°26'1 3.8
2017-Nov-19 22:30N 47°17' W 122°26'1 1.7
2017-Nov-19 22:00N 47°17' W 122°25'1 2.0
2017-Nov-19 21:30N 47°16' W 122°24'0 0.1
2017-Nov-19 18:04N 47°16' W 122°23'0 3.3
2017-Nov-19 17:57N 47°16' W 122°23'2 1.1
2017-Nov-19 16:24N 47°17' W 122°25'1 3.6
2017-Nov-19 16:00N 47°18' W 122°27'611.1
2017-Nov-19 15:30N 47°23' W 122°23'611.5
2017-Nov-19 15:00N 47°28' W 122°24'611.7
2017-Nov-19 14:30N 47°34' W 122°25'3 6.7
2017-Nov-19 14:00N 47°35' W 122°21'0 0.2
2017-Nov-19 13:30N 47°35' W 122°21'1 1.3
2017-Nov-19 13:01N 47°36' W 122°21'1 2.9
2017-Nov-19 12:30N 47°37' W 122°22'2 3.1
2017-Nov-19 12:00N 47°35' W 122°21'1 1.3
2017-Nov-19 11:30N 47°35' W 122°21'0 0.0
2017-Nov-19 10:57N 47°35' W 122°21'0 0.0
2017-Nov-19 10:30N 47°35' W 122°21'0 0.0
2017-Nov-19 10:00N 47°35' W 122°21'0 0.0
2017-Nov-19 09:30N 47°35' W 122°21'0 0.0
2017-Nov-19 09:00N 47°35' W 122°21'0 0.0
2017-Nov-19 08:30N 47°35' W 122°21'0 0.0
2017-Nov-19 07:57N 47°35' W 122°21'0 0.0
2017-Nov-19 07:30N 47°35' W 122°21'0 0.0
2017-Nov-19 07:00N 47°35' W 122°21'0 0.0
2017-Nov-19 06:27N 47°35' W 122°21'0 0.0
2017-Nov-19 06:00N 47°35' W 122°21'0 0.0
2017-Nov-19 05:30N 47°35' W 122°21'2 3.4
2017-Nov-19 05:00N 47°36' W 122°22'510.8
2017-Nov-19 04:30N 47°32' W 122°28'612.4
2017-Nov-19 04:00N 47°26' W 122°31'612.0
2017-Nov-19 03:30N 47°20' W 122°32'510.4
2017-Nov-19 03:00N 47°17' W 122°26'2 4.4
2017-Nov-19 02:30N 47°16' W 122°23'1 0.5
2017-Nov-19 01:25N 47°15' W 122°23'3 6.3
2017-Nov-19 01:00N 47°17' W 122°26'1 1.4
2017-Nov-19 00:30N 47°16' W 122°27'0 0.1
2017-Nov-18 23:58N 47°16' W 122°27'0 0.0
2017-Nov-18 23:30N 47°16' W 122°27'0 0.1
2017-Nov-18 23:00N 47°16' W 122°26'0 0.1
2017-Nov-18 20:09N 47°16' W 122°26'0 0.0
2017-Nov-18 19:45N 47°16' W 122°26'0 0.0
2017-Nov-18 19:15N 47°16' W 122°26'0 0.0
2017-Nov-18 18:45N 47°16' W 122°26'0 0.0
2017-Nov-18 18:27N 47°16' W 122°26'0 0.0
2017-Nov-18 17:51N 47°16' W 122°26'0 0.0
2017-Nov-18 17:13N 47°16' W 122°26'0 0.3
2017-Nov-18 17:00N 47°16' W 122°26'0 0.0
2017-Nov-18 16:30N 47°16' W 122°26'0 0.0
2017-Nov-18 16:00N 47°16' W 122°26'0 0.0
2017-Nov-18 15:30N 47°16' W 122°26'0 0.0
2017-Nov-18 15:00N 47°16' W 122°26'0 0.0
2017-Nov-18 14:30N 47°16' W 122°26'0 0.0
2017-Nov-18 14:00N 47°16' W 122°26'0 0.0
2017-Nov-18 13:30N 47°16' W 122°26'0 0.0
2017-Nov-18 13:00N 47°16' W 122°26'0 0.0
2017-Nov-18 12:30N 47°16' W 122°26'0 0.0
2017-Nov-18 12:00N 47°16' W 122°26'0 0.0
2017-Nov-18 11:30N 47°16' W 122°26'0 0.0
2017-Nov-18 11:00N 47°16' W 122°26'0 0.0
2017-Nov-18 10:29N 47°16' W 122°26'0 0.0
2017-Nov-18 09:56N 47°16' W 122°26'0 0.0
2017-Nov-18 09:30N 47°16' W 122°26'1 2.4
2017-Nov-18 08:57N 47°16' W 122°24'1 1.6
2017-Nov-18 08:30N 47°16' W 122°25'0 0.7
2017-Nov-18 07:54N 47°16' W 122°25'0 0.1
2017-Nov-18 07:27N 47°16' W 122°25'0 0.3
2017-Nov-18 06:59N 47°16' W 122°25'0 0.0
2017-Nov-18 06:29N 47°16' W 122°25'0 0.0
2017-Nov-18 05:59N 47°16' W 122°25'0 0.0
2017-Nov-18 05:29N 47°16' W 122°25'0 0.0
2017-Nov-18 04:56N 47°16' W 122°25'0 0.0
2017-Nov-18 04:17N 47°16' W 122°25'0 0.0
2017-Nov-18 03:57N 47°16' W 122°25'1 2.4
2017-Nov-18 03:28N 47°16' W 122°24'1 0.7
2017-Nov-18 02:43N 47°16' W 122°23'1 2.5
2017-Nov-18 02:30N 47°16' W 122°24'1 2.2
2017-Nov-18 02:00N 47°17' W 122°25'0 0.9
2017-Nov-18 01:29N 47°17' W 122°25'4 8.3
2017-Nov-18 01:01N 47°21' W 122°26'4 8.6
2017-Nov-18 00:31N 47°25' W 122°23'510.7
2017-Nov-18 00:01N 47°30' W 122°26'510.8
2017-Nov-17 23:31N 47°35' W 122°25'3 5.3
2017-Nov-17 23:01N 47°37' W 122°22'0 0.0
2017-Nov-17 22:31N 47°37' W 122°22'1 1.5
2017-Nov-17 22:01N 47°37' W 122°23'1 1.4
2017-Nov-17 21:31N 47°37' W 122°23'0 0.1
2017-Nov-17 21:00N 47°37' W 122°23'0 0.1
2017-Nov-17 20:31N 47°37' W 122°23'0 0.6
2017-Nov-17 20:01N 47°37' W 122°22'3 5.4
2017-Nov-17 19:30N 47°35' W 122°22'0 0.2
2017-Nov-17 19:00N 47°35' W 122°22'0 0.3
2017-Nov-17 18:30N 47°35' W 122°22'1 1.9
2017-Nov-17 18:00N 47°36' W 122°22'1 1.1
2017-Nov-17 17:31N 47°36' W 122°22'0 0.6
2017-Nov-17 17:00N 47°36' W 122°22'1 2.3
2017-Nov-17 16:30N 47°35' W 122°21'1 1.3
2017-Nov-17 15:58N 47°35' W 122°21'0 0.0
2017-Nov-17 15:16N 47°35' W 122°21'0 0.0
2017-Nov-17 14:46N 47°35' W 122°21'0 0.0
2017-Nov-17 14:27N 47°35' W 122°21'0 0.0
2017-Nov-17 14:00N 47°35' W 122°21'0 0.0
2017-Nov-17 13:30N 47°35' W 122°21'1 1.9
2017-Nov-17 13:00N 47°36' W 122°21'0 0.1
2017-Nov-17 12:31N 47°36' W 122°21'3 5.2
2017-Nov-17 12:00N 47°38' W 122°23'0 0.0
2017-Nov-17 11:30N 47°38' W 122°23'0 0.0
2017-Nov-17 11:00N 47°38' W 122°23'0 0.0
2017-Nov-17 10:31N 47°38' W 122°23'0 0.0
2017-Nov-17 10:00N 47°38' W 122°23'0 0.0
2017-Nov-17 09:30N 47°38' W 122°23'0 0.0
2017-Nov-17 09:00N 47°38' W 122°23'0 0.0
2017-Nov-17 08:30N 47°38' W 122°23'0 0.0
2017-Nov-17 08:00N 47°38' W 122°23'0 0.0
2017-Nov-17 07:30N 47°38' W 122°23'0 0.0
2017-Nov-17 07:00N 47°38' W 122°23'0 0.0
2017-Nov-17 06:30N 47°38' W 122°23'0 0.0
2017-Nov-17 05:58N 47°38' W 122°23'0 0.0
2017-Nov-17 05:30N 47°38' W 122°23'0 0.0
2017-Nov-17 05:00N 47°38' W 122°23'0 0.0
2017-Nov-17 04:30N 47°38' W 122°23'0 0.0
2017-Nov-17 04:00N 47°38' W 122°23'0 0.0
2017-Nov-17 03:30N 47°38' W 122°23'0 0.0
2017-Nov-17 03:00N 47°38' W 122°23'0 0.0
2017-Nov-17 02:30N 47°38' W 122°23'0 0.0
2017-Nov-17 02:00N 47°38' W 122°23'0 0.0
2017-Nov-17 01:30N 47°38' W 122°23'0 0.0
2017-Nov-17 01:00N 47°38' W 122°23'0 0.0
2017-Nov-17 00:30N 47°38' W 122°23'0 0.0
2017-Nov-17 00:00N 47°38' W 122°23'0 0.0
2017-Nov-16 23:30N 47°38' W 122°23'0 0.0
2017-Nov-16 23:00N 47°38' W 122°23'0 0.0
2017-Nov-16 22:30N 47°38' W 122°23'0 0.0
2017-Nov-16 22:00N 47°38' W 122°23'0 0.0
2017-Nov-16 21:30N 47°38' W 122°23'0 0.0
2017-Nov-16 21:01N 47°38' W 122°23'0 0.0
2017-Nov-16 20:29N 47°38' W 122°23'0 0.0
2017-Nov-16 19:59N 47°38' W 122°23'0 0.0
2017-Nov-16 19:29N 47°38' W 122°23'0 0.0
2017-Nov-16 18:59N 47°38' W 122°23'0 0.0
2017-Nov-16 18:29N 47°38' W 122°23'0 0.0
2017-Nov-16 17:57N 47°38' W 122°23'0 0.0
2017-Nov-16 17:29N 47°38' W 122°23'0 0.0
2017-Nov-16 16:59N 47°38' W 122°23'0 0.0
2017-Nov-16 16:30N 47°38' W 122°23'0 0.0
2017-Nov-16 16:00N 47°38' W 122°23'0 0.0
2017-Nov-16 15:29N 47°38' W 122°23'0 0.0
2017-Nov-16 14:59N 47°38' W 122°23'0 0.0
2017-Nov-16 14:29N 47°38' W 122°23'0 1.0
2017-Nov-16 14:01N 47°37' W 122°23'1 1.6
2017-Nov-16 13:30N 47°37' W 122°22'2 4.0
2017-Nov-16 13:00N 47°35' W 122°21'0 0.1
2017-Nov-16 12:30N 47°35' W 122°21'3 5.5
2017-Nov-16 12:01N 47°36' W 122°24'510.5
2017-Nov-16 11:30N 47°31' W 122°25'510.9
2017-Nov-16 11:00N 47°26' W 122°23'5 9.3
2017-Nov-16 10:30N 47°21' W 122°24'4 8.6
2017-Nov-16 10:00N 47°17' W 122°26'1 0.5
2017-Nov-16 07:34N 47°16' W 122°24'0 6.4
2017-Nov-16 07:30N 47°17' W 122°25'0 0.9
2017-Nov-16 06:58N 47°16' W 122°25'0 0.0
2017-Nov-16 06:25N 47°16' W 122°25'0 0.1
2017-Nov-16 05:55N 47°16' W 122°25'0 0.0
2017-Nov-16 05:19N 47°16' W 122°25'0 0.0
2017-Nov-16 04:52N 47°16' W 122°25'0 0.0
2017-Nov-16 04:16N 47°16' W 122°25'0 0.0
2017-Nov-16 03:55N 47°16' W 122°25'0 0.0
2017-Nov-16 03:26N 47°16' W 122°25'1 2.5
2017-Nov-16 03:00N 47°16' W 122°27'0 0.2
2017-Nov-16 02:30N 47°16' W 122°27'0 1.0
2017-Nov-16 02:00N 47°16' W 122°26'1 2.0
2017-Nov-16 01:27N 47°16' W 122°24'1 1.8
2017-Nov-16 01:00N 47°17' W 122°25'1 1.6
2017-Nov-16 00:29N 47°18' W 122°26'1 2.0
2017-Nov-16 00:00N 47°17' W 122°26'1 1.8
2017-Nov-15 23:30N 47°16' W 122°26'0 0.0
2017-Nov-15 23:00N 47°16' W 122°26'0 0.0
2017-Nov-15 22:30N 47°16' W 122°26'0 0.0
2017-Nov-15 21:59N 47°16' W 122°26'2 3.7
2017-Nov-15 21:30N 47°18' W 122°26'0 0.2
2017-Nov-15 21:00N 47°18' W 122°26'0 0.1
2017-Nov-15 20:30N 47°18' W 122°26'0 0.2
2017-Nov-15 20:00N 47°18' W 122°26'0 0.2
2017-Nov-15 19:26N 47°18' W 122°26'0 0.1
2017-Nov-15 18:58N 47°18' W 122°26'1 1.6
2017-Nov-15 18:30N 47°18' W 122°27'4 8.5
2017-Nov-15 18:00N 47°22' W 122°24'4 8.8
2017-Nov-15 17:30N 47°26' W 122°24'510.2
2017-Nov-15 17:00N 47°31' W 122°26'5 9.7
2017-Nov-15 16:30N 47°36' W 122°24'3 5.3
2017-Nov-15 16:00N 47°36' W 122°20'0 0.5
2017-Nov-15 15:31N 47°36' W 122°21'1 1.3
2017-Nov-15 15:00N 47°35' W 122°21'1 1.6
2017-Nov-15 14:31N 47°36' W 122°21'1 1.9
2017-Nov-15 14:00N 47°36' W 122°22'1 2.2
2017-Nov-15 13:30N 47°35' W 122°21'0 0.0
2017-Nov-15 13:00N 47°35' W 122°21'0 0.2
2017-Nov-15 12:30N 47°35' W 122°21'0 0.0
2017-Nov-15 12:00N 47°35' W 122°21'3 5.9
2017-Nov-15 11:31N 47°38' W 122°23'0 0.1
2017-Nov-15 11:00N 47°38' W 122°23'0 0.0
2017-Nov-15 10:30N 47°38' W 122°23'0 0.0
2017-Nov-15 10:00N 47°38' W 122°23'0 0.0
2017-Nov-15 09:30N 47°38' W 122°23'0 0.0
2017-Nov-15 09:00N 47°38' W 122°23'0 0.0
2017-Nov-15 08:30N 47°38' W 122°23'0 0.0
2017-Nov-15 08:00N 47°38' W 122°23'0 0.0
2017-Nov-15 07:30N 47°38' W 122°23'0 0.0
2017-Nov-15 07:00N 47°38' W 122°23'0 0.0
2017-Nov-15 06:30N 47°38' W 122°23'0 0.0
2017-Nov-15 05:57N 47°38' W 122°23'0 0.0
2017-Nov-15 05:30N 47°38' W 122°23'0 0.0
2017-Nov-15 05:00N 47°38' W 122°23'0 0.0
2017-Nov-15 04:30N 47°38' W 122°23'0 0.0
2017-Nov-15 04:00N 47°38' W 122°23'0 0.0
2017-Nov-15 03:30N 47°38' W 122°23'0 0.0
2017-Nov-15 03:00N 47°38' W 122°23'0 0.0
2017-Nov-15 02:31N 47°38' W 122°23'0 0.0
2017-Nov-15 02:01N 47°38' W 122°23'0 0.0
2017-Nov-15 01:31N 47°38' W 122°23'0 0.0
2017-Nov-15 01:01N 47°38' W 122°23'0 0.0
2017-Nov-15 00:30N 47°38' W 122°23'0 0.0
2017-Nov-15 00:00N 47°38' W 122°23'0 0.0
2017-Nov-14 23:31N 47°38' W 122°23'0 0.0
2017-Nov-14 23:00N 47°38' W 122°23'0 0.0
2017-Nov-14 22:31N 47°38' W 122°23'0 0.0
2017-Nov-14 22:00N 47°38' W 122°23'0 0.0
2017-Nov-14 21:30N 47°38' W 122°23'0 0.0
2017-Nov-14 21:01N 47°38' W 122°23'0 0.0
2017-Nov-14 20:31N 47°38' W 122°23'0 0.0
2017-Nov-14 20:00N 47°38' W 122°23'0 0.0
2017-Nov-14 19:30N 47°38' W 122°23'3 5.4
2017-Nov-14 19:00N 47°36' W 122°21'0 0.2
2017-Nov-14 18:30N 47°36' W 122°21'2 3.3
2017-Nov-14 18:00N 47°36' W 122°23'1 2.8
2017-Nov-14 17:31N 47°35' W 122°25'4 8.8
2017-Nov-14 17:00N 47°31' W 122°25'612.4
2017-Nov-14 16:30N 47°25' W 122°22'510.5
2017-Nov-14 16:01N 47°20' W 122°25'4 6.6
2017-Nov-14 15:23N 47°16' W 122°25'0 0.6
2017-Nov-14 15:00N 47°16' W 122°25'1 2.7
2017-Nov-14 14:31N 47°17' W 122°27'1 0.3
2017-Nov-14 12:00N 47°18' W 122°26'3 6.6
2017-Nov-14 11:30N 47°21' W 122°25'4 8.1
2017-Nov-14 11:00N 47°25' W 122°23'5 9.6
2017-Nov-14 10:30N 47°29' W 122°24'5 9.6
2017-Nov-14 10:00N 47°34' W 122°26'4 7.6
2017-Nov-14 09:30N 47°36' W 122°21'1 1.8
2017-Nov-14 09:00N 47°35' W 122°21'0 0.1
2017-Nov-14 08:31N 47°35' W 122°21'3 6.3
2017-Nov-14 08:00N 47°38' W 122°23'0 0.1
2017-Nov-14 07:31N 47°38' W 122°23'0 0.0
2017-Nov-14 07:00N 47°38' W 122°23'0 0.0
2017-Nov-14 06:30N 47°38' W 122°23'0 0.0
2017-Nov-14 06:00N 47°38' W 122°23'0 0.1
2017-Nov-14 05:30N 47°38' W 122°23'0 0.1
2017-Nov-14 05:00N 47°38' W 122°23'0 0.0
2017-Nov-14 04:30N 47°38' W 122°23'0 0.0
2017-Nov-14 04:01N 47°38' W 122°23'0 0.0
2017-Nov-14 03:30N 47°38' W 122°23'0 0.0
2017-Nov-14 03:00N 47°38' W 122°23'1 1.9
2017-Nov-14 02:30N 47°37' W 122°23'5 9.9
2017-Nov-14 02:00N 47°32' W 122°25'511.0
2017-Nov-14 01:30N 47°27' W 122°23'5 9.7
2017-Nov-14 01:00N 47°22' W 122°22'510.8
2017-Nov-14 00:30N 47°18' W 122°27'3 5.4
2017-Nov-14 00:00N 47°16' W 122°25'1 2.2
2017-Nov-13 23:30N 47°17' W 122°26'3 5.4
2017-Nov-13 23:00N 47°15' W 122°23'0 0.2
2017-Nov-13 22:27N 47°15' W 122°23'1 2.5
2017-Nov-13 21:59N 47°16' W 122°24'22 1.1
2017-Nov-13 01:59N 47°38' W 122°23'0 0.0
2017-Nov-13 01:28N 47°38' W 122°23'0 0.0
2017-Nov-13 00:58N 47°38' W 122°23'0 0.0
2017-Nov-13 00:29N 47°38' W 122°23'0 0.0
2017-Nov-12 23:59N 47°38' W 122°23'0 0.0
2017-Nov-12 23:28N 47°38' W 122°23'0 0.0
2017-Nov-12 22:58N 47°38' W 122°23'0 0.0
2017-Nov-12 22:28N 47°38' W 122°23'0 0.0
2017-Nov-12 21:58N 47°38' W 122°23'0 0.0
2017-Nov-12 21:29N 47°38' W 122°23'0 0.0
2017-Nov-12 20:58N 47°38' W 122°23'0 0.0
2017-Nov-12 20:28N 47°38' W 122°23'0 0.0
2017-Nov-12 19:59N 47°38' W 122°23'0 0.0
2017-Nov-12 19:29N 47°38' W 122°23'0 0.0
2017-Nov-12 18:59N 47°38' W 122°23'0 0.0
2017-Nov-12 18:29N 47°38' W 122°23'0 0.1
2017-Nov-12 17:59N 47°38' W 122°23'0 0.1
2017-Nov-12 17:30N 47°38' W 122°23'0 0.0
2017-Nov-12 17:00N 47°38' W 122°23'1 1.8
2017-Nov-12 16:30N 47°37' W 122°22'2 4.2
2017-Nov-12 16:00N 47°35' W 122°21'0 0.6
2017-Nov-12 15:30N 47°36' W 122°21'1 1.1
2017-Nov-12 15:00N 47°35' W 122°21'1 2.4
2017-Nov-12 14:30N 47°36' W 122°21'1 2.6
2017-Nov-12 14:00N 47°37' W 122°22'1 1.5
2017-Nov-12 13:31N 47°38' W 122°23'0 0.1
2017-Nov-12 13:00N 47°38' W 122°23'2 3.3
2017-Nov-12 12:31N 47°36' W 122°22'1 3.0
2017-Nov-12 12:00N 47°35' W 122°21'0 0.1
2017-Nov-12 11:31N 47°35' W 122°21'0 0.0
2017-Nov-12 11:01N 47°35' W 122°21'0 0.0
2017-Nov-12 10:30N 47°35' W 122°21'0 0.0
2017-Nov-12 10:01N 47°35' W 122°21'0 0.0
2017-Nov-12 09:31N 47°35' W 122°21'3 5.4
2017-Nov-12 09:01N 47°37' W 122°24'510.2
2017-Nov-12 08:30N 47°41' W 122°28'510.5
2017-Nov-12 08:01N 47°46' W 122°27'510.6
2017-Nov-12 07:30N 47°52' W 122°29'510.3
2017-Nov-12 07:00N 47°56' W 122°33'2710.6
2017-Nov-12 04:25N 48°22' W 122°46'511.4
2017-Nov-12 03:58N 48°27' W 122°45'511.7
2017-Nov-12 03:31N 48°32' W 122°45'611.8
2017-Nov-12 03:01N 48°38' W 122°44'5 1.5
2017-Nov-11 23:50N 48°43' W 122°44'410.7
2017-Nov-11 23:31N 48°40' W 122°41'5 9.8
2017-Nov-11 23:00N 48°37' W 122°35'2 3.2
2017-Nov-11 22:30N 48°37' W 122°33'0 0.3
2017-Nov-11 22:00N 48°37' W 122°33'5 9.9
2017-Nov-11 21:30N 48°32' W 122°34'2 4.1
2017-Nov-11 21:00N 48°31' W 122°37'0 0.0
2017-Nov-11 20:29N 48°31' W 122°37'0 0.0
2017-Nov-11 19:59N 48°31' W 122°37'0 0.0
2017-Nov-11 19:29N 48°31' W 122°37'0 0.0
2017-Nov-11 18:59N 48°31' W 122°37'0 0.0
2017-Nov-11 18:29N 48°31' W 122°37'0 0.0
2017-Nov-11 17:59N 48°31' W 122°37'0 0.0
2017-Nov-11 17:29N 48°31' W 122°37'0 0.0
2017-Nov-11 16:59N 48°31' W 122°37'0 0.0
2017-Nov-11 16:23N 48°31' W 122°37'0 0.0
2017-Nov-11 15:47N 48°31' W 122°37'0 0.0
2017-Nov-11 15:29N 48°31' W 122°37'0 0.0
2017-Nov-11 14:59N 48°31' W 122°37'0 0.0
2017-Nov-11 14:29N 48°31' W 122°37'0 0.0
2017-Nov-11 13:59N 48°31' W 122°37'0 0.0
2017-Nov-11 13:29N 48°31' W 122°37'0 0.0
2017-Nov-11 12:59N 48°31' W 122°37'0 0.0
2017-Nov-11 12:23N 48°31' W 122°37'0 0.0
2017-Nov-11 11:59N 48°31' W 122°37'0 0.0
2017-Nov-11 11:29N 48°31' W 122°37'0 0.0
2017-Nov-11 10:59N 48°31' W 122°37'0 0.0
2017-Nov-11 10:11N 48°31' W 122°37'0 0.0
2017-Nov-11 09:59N 48°31' W 122°37'0 0.0
2017-Nov-11 09:29N 48°31' W 122°37'0 0.0
2017-Nov-11 08:59N 48°31' W 122°37'0 0.0
2017-Nov-11 08:29N 48°31' W 122°37'0 0.0
2017-Nov-11 07:59N 48°31' W 122°37'0 0.0
2017-Nov-11 07:29N 48°31' W 122°37'0 0.0
2017-Nov-11 06:59N 48°31' W 122°37'0 0.0
2017-Nov-11 06:29N 48°31' W 122°37'0 0.0
2017-Nov-11 05:59N 48°31' W 122°37'0 0.0
2017-Nov-11 05:29N 48°31' W 122°37'0 0.0
2017-Nov-11 04:59N 48°31' W 122°37'0 0.0
2017-Nov-11 04:29N 48°31' W 122°37'0 0.0
2017-Nov-11 03:59N 48°31' W 122°37'0 0.0
2017-Nov-11 03:29N 48°31' W 122°37'0 0.0
2017-Nov-11 02:59N 48°31' W 122°37'0 0.0
2017-Nov-11 02:30N 48°31' W 122°37'0 0.0
2017-Nov-11 02:00N 48°31' W 122°37'0 0.0
2017-Nov-11 01:30N 48°31' W 122°37'0 0.0
2017-Nov-11 01:00N 48°31' W 122°37'0 0.0
2017-Nov-11 00:30N 48°31' W 122°37'0 0.0
2017-Nov-11 00:00N 48°31' W 122°37'0 0.0
2017-Nov-10 23:30N 48°31' W 122°37'0 0.0
2017-Nov-10 23:00N 48°31' W 122°37'0 0.0
2017-Nov-10 22:30N 48°31' W 122°37'0 0.0
2017-Nov-10 22:00N 48°31' W 122°37'1 2.8
2017-Nov-10 21:30N 48°31' W 122°35'0 0.1
2017-Nov-10 21:00N 48°31' W 122°35'1 1.2
2017-Nov-10 20:30N 48°31' W 122°35'2 4.9
2017-Nov-10 20:00N 48°34' W 122°35'2 4.1
2017-Nov-10 19:30N 48°35' W 122°36'0 0.1
2017-Nov-10 19:00N 48°35' W 122°36'1 1.0
2017-Nov-10 18:30N 48°35' W 122°36'3 5.5
2017-Nov-10 18:00N 48°33' W 122°34'3 7.0
2017-Nov-10 17:30N 48°31' W 122°39'4 8.7
2017-Nov-10 17:00N 48°28' W 122°44'28 8.2
2017-Nov-10 13:36N 48°01' W 122°37'1 9.2
2017-Nov-10 13:28N 47°60' W 122°36'4 9.1
2017-Nov-10 13:00N 47°57' W 122°31'611.0
2017-Nov-10 12:30N 47°52' W 122°27'612.2
2017-Nov-10 12:00N 47°46' W 122°25'612.3
2017-Nov-10 11:30N 47°40' W 122°27'612.3
2017-Nov-10 11:00N 47°34' W 122°26'611.9
2017-Nov-10 10:30N 47°28' W 122°24'611.7
2017-Nov-10 10:00N 47°22' W 122°22'611.4
2017-Nov-10 09:31N 47°18' W 122°27'4 7.8
2017-Nov-10 09:00N 47°15' W 122°23'0 0.1
2017-Nov-10 08:30N 47°15' W 122°23'1 1.1
2017-Nov-10 08:00N 47°16' W 122°23'1 2.6
2017-Nov-10 07:30N 47°17' W 122°25'2 3.6
2017-Nov-10 07:00N 47°18' W 122°27'0 0.2
2017-Nov-10 04:12N 47°18' W 122°26'0 0.0
2017-Nov-10 03:57N 47°18' W 122°26'0 0.0
2017-Nov-10 03:30N 47°18' W 122°26'1 2.7
2017-Nov-10 03:01N 47°17' W 122°25'0 0.2
2017-Nov-10 02:30N 47°17' W 122°24'0 0.1
2017-Nov-10 02:00N 47°17' W 122°25'1 2.0
2017-Nov-10 01:30N 47°17' W 122°26'1 1.9
2017-Nov-10 00:59N 47°16' W 122°26'0 0.0
2017-Nov-10 00:30N 47°16' W 122°26'0 0.0
2017-Nov-09 23:59N 47°16' W 122°26'0 0.0
2017-Nov-09 23:30N 47°16' W 122°26'0 0.0
2017-Nov-09 23:00N 47°16' W 122°26'  

Dump ship's entire track history